createdAt,value
2017-12-06T00:00:11.531Z,101088.23
2017-12-06T00:02:37.741Z,101090.74
2017-12-06T00:05:04.061Z,101092.33
2017-12-06T00:07:30.284Z,101091.06
2017-12-06T00:09:56.500Z,101083.86
2017-12-06T00:12:22.757Z,101082.89
2017-12-06T00:14:48.990Z,101096.16
2017-12-06T00:17:15.181Z,101095.73
2017-12-06T00:19:41.442Z,101087.17
2017-12-06T00:22:07.853Z,101094.89
2017-12-06T00:24:34.276Z,101098.86
2017-12-06T00:27:00.537Z,101091.42
2017-12-06T00:29:27.159Z,101091.64
2017-12-06T00:31:53.393Z,101089.84
2017-12-06T00:34:19.574Z,101088.08
2017-12-06T00:36:45.784Z,101090.17
2017-12-06T00:39:12.079Z,101095.92
2017-12-06T00:41:38.319Z,101075.72
2017-12-06T00:44:04.732Z,101093.64
2017-12-06T00:46:30.926Z,101096.22
2017-12-06T00:48:57.211Z,101092.94
2017-12-06T00:51:23.629Z,101097.60
2017-12-06T00:53:50.024Z,101088.23
2017-12-06T00:56:16.285Z,101091.00
2017-12-06T00:58:42.517Z,101090.00
2017-12-06T01:01:08.692Z,101080.16
2017-12-06T01:03:34.873Z,101082.44
2017-12-06T01:06:01.425Z,101077.22
2017-12-06T01:08:27.657Z,101073.87
2017-12-06T01:10:53.869Z,101073.52
2017-12-06T01:13:20.308Z,101072.61
2017-12-06T01:15:46.577Z,101072.05
2017-12-06T01:18:12.936Z,101076.12
2017-12-06T01:20:39.202Z,101073.60
2017-12-06T01:23:05.397Z,101067.33
2017-12-06T01:25:31.652Z,101066.41
2017-12-06T01:27:58.288Z,101062.47
2017-12-06T01:30:24.534Z,101071.91
2017-12-06T01:32:50.738Z,101069.55
2017-12-06T01:35:16.970Z,101070.23
2017-12-06T01:37:43.154Z,101069.76
2017-12-06T01:40:09.345Z,101069.09
2017-12-06T01:42:35.832Z,101061.75
2017-12-06T01:45:02.107Z,101058.73
2017-12-06T01:47:28.291Z,101050.11
2017-12-06T01:49:54.512Z,101053.77
2017-12-06T01:52:20.695Z,101046.56
2017-12-06T01:54:47.022Z,101045.61
2017-12-06T01:57:13.440Z,101041.44
2017-12-06T01:59:39.658Z,101040.01
2017-12-06T02:02:05.901Z,101041.74
2017-12-06T02:04:32.129Z,101041.84
2017-12-06T02:06:58.351Z,101035.12
2017-12-06T02:09:24.741Z,101035.75
2017-12-06T02:11:51.022Z,101034.78
2017-12-06T02:14:17.250Z,101033.41
2017-12-06T02:16:43.478Z,101023.69
2017-12-06T02:19:09.695Z,101025.09
2017-12-06T02:21:35.934Z,101018.44
2017-12-06T02:24:02.166Z,101024.59
2017-12-06T02:26:28.598Z,101026.77
2017-12-06T02:28:54.779Z,101023.30
2017-12-06T02:31:21.222Z,101023.00
2017-12-06T02:33:47.449Z,101024.06
2017-12-06T02:36:13.627Z,101024.05
2017-12-06T02:38:39.942Z,101030.45
2017-12-06T02:41:06.384Z,101027.72
2017-12-06T02:43:32.824Z,101021.23
2017-12-06T02:45:59.057Z,101025.89
2017-12-06T02:48:25.288Z,101031.17
2017-12-06T02:50:51.627Z,101024.63
2017-12-06T02:53:17.942Z,101022.03
2017-12-06T02:55:44.366Z,101014.95
2017-12-06T02:58:10.549Z,101014.54
2017-12-06T03:00:36.739Z,101013.92
2017-12-06T03:03:03.062Z,101011.22
2017-12-06T03:05:29.253Z,101000.50
2017-12-06T03:07:55.724Z,101006.84
2017-12-06T03:10:22.140Z,100998.40
2017-12-06T03:12:48.389Z,101009.39
2017-12-06T03:15:14.661Z,101009.27
2017-12-06T03:17:40.884Z,101011.00
2017-12-06T03:20:07.266Z,101007.39
2017-12-06T03:22:33.492Z,101016.59
2017-12-06T03:24:59.713Z,101020.30
2017-12-06T03:27:25.899Z,101009.59
2017-12-06T03:29:52.088Z,101008.66
2017-12-06T03:32:18.541Z,101003.27
2017-12-06T03:34:44.722Z,101005.02
2017-12-06T03:37:11.076Z,100997.52
2017-12-06T03:39:37.294Z,100997.86
2017-12-06T03:42:03.531Z,100998.89
2017-12-06T03:44:29.980Z,100995.17
2017-12-06T03:46:56.189Z,100987.80
2017-12-06T03:49:22.438Z,100997.70
2017-12-06T03:51:48.659Z,100994.64
2017-12-06T03:54:14.894Z,100992.41
2017-12-06T03:56:41.115Z,100999.42
2017-12-06T03:59:07.535Z,100997.67
2017-12-06T04:01:33.785Z,100998.98
2017-12-06T04:04:00.009Z,101000.22
2017-12-06T04:06:26.183Z,100999.81
2017-12-06T04:08:52.464Z,100998.56
2017-12-06T04:11:18.693Z,100996.66
2017-12-06T04:13:44.945Z,100996.73
2017-12-06T04:16:11.355Z,100997.06
2017-12-06T04:18:37.751Z,101005.19
2017-12-06T04:21:03.931Z,101002.73
2017-12-06T04:23:30.283Z,101003.31
2017-12-06T04:25:56.461Z,101008.41
2017-12-06T04:28:22.653Z,101000.08
2017-12-06T04:30:48.886Z,100999.95
2017-12-06T04:33:15.137Z,101000.96
2017-12-06T04:35:41.387Z,100996.75
2017-12-06T04:38:07.602Z,101003.18
2017-12-06T04:40:33.831Z,101001.58
2017-12-06T04:43:00.264Z,101002.02
2017-12-06T04:45:26.479Z,100998.00
2017-12-06T04:47:52.737Z,100991.23
2017-12-06T04:50:18.919Z,100997.03
2017-12-06T04:52:45.195Z,100993.41
2017-12-06T04:55:11.421Z,100997.21
2017-12-06T04:57:37.836Z,101000.95
2017-12-06T05:00:04.335Z,101002.45
2017-12-06T05:02:30.711Z,101000.44
2017-12-06T05:04:56.984Z,100996.23
2017-12-06T05:07:23.384Z,100997.83
2017-12-06T05:09:49.651Z,100996.66
2017-12-06T05:12:15.836Z,101001.62
2017-12-06T05:14:42.264Z,101003.51
2017-12-06T05:17:08.433Z,101001.84
2017-12-06T05:19:34.679Z,101001.99
2017-12-06T05:22:00.886Z,101007.47
2017-12-06T05:24:27.184Z,101013.08
2017-12-06T05:26:53.614Z,101006.52
2017-12-06T05:29:19.831Z,101013.33
2017-12-06T05:31:46.007Z,101017.27
2017-12-06T05:34:12.201Z,101015.82
2017-12-06T05:36:38.419Z,101012.91
2017-12-06T05:39:04.746Z,101004.97
2017-12-06T05:41:30.929Z,101004.27
2017-12-06T05:43:57.149Z,101004.36
2017-12-06T05:46:23.336Z,101002.47
2017-12-06T05:48:49.671Z,101008.62
2017-12-06T05:51:15.898Z,100999.41
2017-12-06T05:53:42.084Z,100995.09
2017-12-06T05:56:08.265Z,101007.37
2017-12-06T05:58:34.476Z,101005.58
2017-12-06T06:01:00.875Z,101009.14
2017-12-06T06:03:27.462Z,101010.98
2017-12-06T06:05:53.674Z,101002.19
2017-12-06T06:08:19.858Z,101008.11
2017-12-06T06:10:46.050Z,101015.41
2017-12-06T06:13:12.268Z,101012.97
2017-12-06T06:15:38.594Z,101013.11
2017-12-06T06:18:04.818Z,101017.70
2017-12-06T06:20:31.041Z,101014.90
2017-12-06T06:22:57.225Z,101013.02
2017-12-06T06:25:23.506Z,101007.20
2017-12-06T06:27:49.727Z,101007.45
2017-12-06T06:30:15.961Z,101011.69
2017-12-06T06:32:42.204Z,101023.52
2017-12-06T06:35:08.426Z,101019.88
2017-12-06T06:37:34.616Z,101024.77
2017-12-06T06:40:00.881Z,101027.34
2017-12-06T06:42:27.326Z,101028.86
2017-12-06T06:44:53.535Z,101020.55
2017-12-06T06:47:19.718Z,101026.98
2017-12-06T06:49:45.945Z,101031.66
2017-12-06T06:52:12.225Z,101026.66
2017-12-06T06:54:38.426Z,101021.49
2017-12-06T06:57:04.879Z,101027.30
2017-12-06T06:59:31.066Z,101021.27
2017-12-06T07:01:57.355Z,101023.88
2017-12-06T07:04:23.773Z,101019.45
2017-12-06T07:06:50.019Z,101018.02
2017-12-06T07:09:16.251Z,101017.03
2017-12-06T07:11:42.667Z,101009.13
2017-12-06T07:14:08.861Z,101012.16
2017-12-06T07:16:35.126Z,101013.50
2017-12-06T07:19:01.779Z,101014.34
2017-12-06T07:21:27.984Z,100999.83
2017-12-06T07:23:54.180Z,101002.05
2017-12-06T07:26:20.449Z,101004.38
2017-12-06T07:28:46.682Z,100997.27
2017-12-06T07:31:12.871Z,100997.39
2017-12-06T07:33:39.077Z,100991.18
2017-12-06T07:36:05.447Z,100987.63
2017-12-06T07:38:31.814Z,100990.38
2017-12-06T07:40:58.229Z,100985.64
2017-12-06T07:43:24.423Z,100986.20
2017-12-06T07:45:50.705Z,100986.80
2017-12-06T07:48:17.126Z,100984.12
2017-12-06T07:50:43.318Z,100985.02
2017-12-06T07:53:09.590Z,100986.01
2017-12-06T07:55:35.808Z,100990.28
2017-12-06T07:58:01.997Z,100982.24
2017-12-06T08:00:28.198Z,100984.02
2017-12-06T08:02:54.714Z,100969.15
2017-12-06T08:05:20.922Z,100976.39
2017-12-06T08:07:47.169Z,100974.56
2017-12-06T08:10:13.596Z,100979.84
2017-12-06T08:12:39.834Z,100978.08
2017-12-06T08:15:06.060Z,100982.34
2017-12-06T08:17:32.495Z,100978.09
2017-12-06T08:19:58.726Z,100979.09
2017-12-06T08:22:24.954Z,100979.94
2017-12-06T08:24:51.387Z,100980.66
2017-12-06T08:27:17.802Z,100976.34
2017-12-06T08:29:44.029Z,100984.68
2017-12-06T08:32:10.270Z,100976.42
2017-12-06T08:34:36.453Z,100981.66
2017-12-06T08:37:02.940Z,100975.65
2017-12-06T08:39:29.169Z,100976.15
2017-12-06T08:41:55.654Z,100983.82
2017-12-06T08:44:21.852Z,100972.27
2017-12-06T08:46:48.264Z,100976.42
2017-12-06T08:49:14.754Z,100969.80
2017-12-06T08:51:40.937Z,100971.28
2017-12-06T08:54:07.293Z,100966.58
2017-12-06T08:56:33.587Z,100965.48
2017-12-06T08:58:59.877Z,100963.55
2017-12-06T09:01:26.123Z,100940.34
2017-12-06T09:03:52.465Z,100947.94
2017-12-06T09:06:18.688Z,100942.54
2017-12-06T09:08:45.338Z,100938.99
2017-12-06T09:11:11.525Z,100921.09
2017-12-06T09:13:37.716Z,100929.41
2017-12-06T09:16:04.212Z,100925.36
2017-12-06T09:18:30.401Z,100931.47
2017-12-06T09:20:56.598Z,100922.77
2017-12-06T09:23:22.817Z,100921.94
2017-12-06T09:25:49.143Z,100912.89
2017-12-06T09:28:15.379Z,100911.83
2017-12-06T09:30:41.594Z,100908.43
2017-12-06T09:33:07.854Z,100903.59
2017-12-06T09:35:34.049Z,100905.43
2017-12-06T09:38:00.264Z,100904.05
2017-12-06T09:40:26.682Z,100900.50
2017-12-06T09:42:52.949Z,100899.75
2017-12-06T09:45:19.384Z,100897.97
2017-12-06T09:47:45.617Z,100888.52
2017-12-06T09:50:11.840Z,100888.59
2017-12-06T09:52:38.278Z,100890.56
2017-12-06T09:55:04.508Z,100893.50
2017-12-06T09:57:30.680Z,100890.53
2017-12-06T09:59:57.342Z,100887.90
2017-12-06T10:02:23.533Z,100880.32
2017-12-06T10:04:49.760Z,100876.66
2017-12-06T10:07:16.055Z,100870.27
2017-12-06T10:09:42.244Z,100868.28
2017-12-06T10:12:08.440Z,100857.55
2017-12-06T10:14:34.657Z,100862.96
2017-12-06T10:17:00.958Z,100855.70
2017-12-06T10:19:27.141Z,100861.88
2017-12-06T10:21:53.594Z,100868.39
2017-12-06T10:24:19.792Z,100864.36
2017-12-06T10:26:46.253Z,100854.78
2017-12-06T10:29:12.479Z,100867.94
2017-12-06T10:31:38.912Z,100858.36
2017-12-06T10:34:05.193Z,100855.38
2017-12-06T10:36:31.626Z,100852.33
2017-12-06T10:38:57.852Z,100857.13
2017-12-06T10:41:24.035Z,100857.53
2017-12-06T10:43:50.225Z,100853.19
2017-12-06T10:46:16.606Z,100853.13
2017-12-06T10:48:42.972Z,100849.38
2017-12-06T10:51:09.193Z,100842.61
2017-12-06T10:53:35.617Z,100847.08
2017-12-06T10:56:01.800Z,100842.41
2017-12-06T10:58:27.990Z,100831.90
2017-12-06T11:00:54.218Z,100836.72
2017-12-06T11:03:20.405Z,100836.13
2017-12-06T11:05:46.586Z,100833.73
2017-12-06T11:08:12.995Z,100830.81
2017-12-06T11:10:39.233Z,100838.39
2017-12-06T11:13:05.557Z,100830.55
2017-12-06T11:15:31.775Z,100828.00
2017-12-06T11:17:58.104Z,100835.84
2017-12-06T11:20:24.262Z,100829.47
2017-12-06T11:22:50.477Z,100824.89
2017-12-06T11:25:16.792Z,100823.69
2017-12-06T11:27:42.973Z,100828.95
2017-12-06T11:30:09.196Z,100822.89
2017-12-06T11:32:35.701Z,100830.05
2017-12-06T11:35:02.139Z,100833.28
2017-12-06T11:37:28.646Z,100830.45
2017-12-06T11:39:55.002Z,100831.36
2017-12-06T11:42:21.182Z,100829.32
2017-12-06T11:44:47.445Z,100825.52
2017-12-06T11:47:13.628Z,100825.80
2017-12-06T11:49:39.915Z,100829.30
2017-12-06T11:52:06.170Z,100821.67
2017-12-06T11:54:32.365Z,100826.80
2017-12-06T11:56:58.537Z,100823.77
2017-12-06T11:59:24.770Z,100816.97
2017-12-06T12:01:51.056Z,100819.38
2017-12-06T12:04:17.234Z,100819.07
2017-12-06T12:06:43.486Z,100817.23
2017-12-06T12:09:09.747Z,100819.48
2017-12-06T12:11:35.936Z,100831.23
2017-12-06T12:14:02.609Z,100832.69
2017-12-06T12:16:28.841Z,100836.16
2017-12-06T12:18:55.062Z,100838.29
2017-12-06T12:21:21.500Z,100834.21
2017-12-06T12:23:47.947Z,100833.54
2017-12-06T12:26:14.156Z,100831.34
2017-12-06T12:28:40.377Z,100830.83
2017-12-06T12:31:06.603Z,100834.81
2017-12-06T12:33:32.856Z,100837.17
2017-12-06T12:35:59.068Z,100833.16
2017-12-06T12:38:25.500Z,100818.91
2017-12-06T12:40:51.730Z,100830.20
2017-12-06T12:43:17.910Z,100817.61
2017-12-06T12:45:44.211Z,100817.28
2017-12-06T12:48:10.604Z,100819.39
2017-12-06T12:50:37.245Z,100818.30
2017-12-06T12:53:03.907Z,100817.64
2017-12-06T12:55:30.179Z,100811.01
2017-12-06T12:57:56.621Z,100814.96
2017-12-06T13:00:22.990Z,100810.82
2017-12-06T13:02:49.231Z,100803.81
2017-12-06T13:05:15.446Z,100803.46
2017-12-06T13:07:41.881Z,100807.13
2017-12-06T13:10:08.104Z,100800.53
2017-12-06T13:12:34.308Z,100807.16
2017-12-06T13:15:00.535Z,100802.69
2017-12-06T13:17:26.741Z,100795.81
2017-12-06T13:19:52.927Z,100800.02
2017-12-06T13:22:19.254Z,100796.03
2017-12-06T13:24:45.658Z,100798.78
2017-12-06T13:27:11.925Z,100801.99
2017-12-06T13:29:38.265Z,100804.98
2017-12-06T13:32:04.578Z,100807.22
2017-12-06T13:34:30.761Z,100804.48
2017-12-06T13:36:57.217Z,100807.53
2017-12-06T13:39:23.478Z,100806.39
2017-12-06T13:41:49.704Z,100796.58
2017-12-06T13:44:15.925Z,100807.98
2017-12-06T13:46:42.153Z,100806.95
2017-12-06T13:49:08.329Z,100811.06
2017-12-06T13:51:34.609Z,100819.20
2017-12-06T13:54:00.856Z,100817.42
2017-12-06T13:56:27.105Z,100825.05
2017-12-06T13:58:53.378Z,100828.64
2017-12-06T14:01:19.727Z,100828.52
2017-12-06T14:03:46.120Z,100827.41
2017-12-06T14:06:12.578Z,100826.79
2017-12-06T14:08:39.044Z,100829.86
2017-12-06T14:11:05.426Z,100832.20
2017-12-06T14:13:31.641Z,100833.56
2017-12-06T14:15:57.830Z,100832.20
2017-12-06T14:18:24.156Z,100838.41
2017-12-06T14:20:50.544Z,100840.00
2017-12-06T14:23:16.730Z,100839.22
2017-12-06T14:25:42.899Z,100842.19
2017-12-06T14:28:09.277Z,100842.30
2017-12-06T14:30:35.475Z,100833.87
2017-12-06T14:33:01.667Z,100827.81
2017-12-06T14:35:27.965Z,100829.13
2017-12-06T14:37:54.166Z,100820.09
2017-12-06T14:40:20.424Z,100826.36
2017-12-06T14:42:46.948Z,100831.17
2017-12-06T14:45:13.280Z,100830.73
2017-12-06T14:47:39.474Z,100830.00
2017-12-06T14:50:05.748Z,100835.80
2017-12-06T14:52:31.927Z,100835.89
2017-12-06T14:54:58.200Z,100837.92
2017-12-06T14:57:24.436Z,100836.77
2017-12-06T14:59:50.862Z,100836.38
2017-12-06T15:02:17.051Z,100838.45
2017-12-06T15:04:43.323Z,100829.83
2017-12-06T15:07:09.541Z,100830.92
2017-12-06T15:09:35.715Z,100819.64
2017-12-06T15:12:02.009Z,100823.36
2017-12-06T15:14:28.229Z,100821.41
2017-12-06T15:16:54.407Z,100823.20
2017-12-06T15:19:20.900Z,100820.91
2017-12-06T15:21:47.131Z,100820.86
2017-12-06T15:24:13.359Z,100825.33
2017-12-06T15:26:39.784Z,100828.64
2017-12-06T15:29:06.224Z,100834.22
2017-12-06T15:31:32.436Z,100840.07
2017-12-06T15:33:58.661Z,100833.85
2017-12-06T15:36:24.837Z,100837.73
2017-12-06T15:38:51.080Z,100836.87
2017-12-06T15:41:17.364Z,100838.53
2017-12-06T15:43:43.600Z,100842.20
2017-12-06T15:46:09.806Z,100841.70
2017-12-06T15:48:36.017Z,100829.95
2017-12-06T15:51:02.264Z,100836.06
2017-12-06T15:53:28.511Z,100832.59
2017-12-06T15:55:54.944Z,100823.25
2017-12-06T15:58:21.166Z,100830.95
2017-12-06T16:00:47.382Z,100820.07
2017-12-06T16:03:13.598Z,100825.92
2017-12-06T16:05:39.792Z,100839.84
2017-12-06T16:08:06.067Z,100827.74
2017-12-06T16:10:32.723Z,100825.73
2017-12-06T16:12:58.952Z,100824.09
2017-12-06T16:15:25.174Z,100823.56
2017-12-06T16:17:51.617Z,100816.75
2017-12-06T16:20:17.829Z,100819.41
2017-12-06T16:22:44.018Z,100821.66
2017-12-06T16:25:10.228Z,100820.09
2017-12-06T16:27:36.525Z,100818.07
2017-12-06T16:30:02.881Z,100795.45
2017-12-06T16:32:29.193Z,100819.00
2017-12-06T16:34:55.374Z,100822.23
2017-12-06T16:37:21.572Z,100814.91
2017-12-06T16:39:47.878Z,100823.55
2017-12-06T16:42:14.102Z,100821.31
2017-12-06T16:44:40.337Z,100826.58
2017-12-06T16:47:06.566Z,100827.67
2017-12-06T16:49:32.967Z,100831.32
2017-12-06T16:51:59.220Z,100837.84
2017-12-06T16:54:25.629Z,100843.58
2017-12-06T16:56:51.890Z,100846.48
2017-12-06T16:59:18.119Z,100851.34
2017-12-06T17:01:44.352Z,100847.50
2017-12-06T17:04:10.535Z,100846.04
2017-12-06T17:06:36.906Z,100858.73
2017-12-06T17:09:03.117Z,100852.72
2017-12-06T17:11:29.458Z,100843.82
2017-12-06T17:13:55.698Z,100856.20
2017-12-06T17:16:22.179Z,100849.23
2017-12-06T17:18:48.544Z,100849.83
2017-12-06T17:21:14.770Z,100855.48
2017-12-06T17:23:40.986Z,100857.53
2017-12-06T17:26:07.194Z,100858.77
2017-12-06T17:28:33.516Z,100863.87
2017-12-06T17:30:59.721Z,100866.56
2017-12-06T17:33:25.908Z,100871.40
2017-12-06T17:35:52.076Z,100863.20
2017-12-06T17:38:18.266Z,100868.73
2017-12-06T17:40:44.593Z,100863.94
2017-12-06T17:43:10.848Z,100858.23
2017-12-06T17:45:37.280Z,100859.00
2017-12-06T17:48:03.493Z,100861.81
2017-12-06T17:50:29.733Z,100862.41
2017-12-06T17:52:55.951Z,100859.83
2017-12-06T17:55:22.181Z,100855.73
2017-12-06T17:57:48.618Z,100852.59
2017-12-06T18:00:14.828Z,100860.43
2017-12-06T18:02:41.023Z,100854.11
2017-12-06T18:05:07.255Z,100862.22
2017-12-06T18:07:33.470Z,100855.03
2017-12-06T18:09:59.771Z,100851.53
2017-12-06T18:12:25.960Z,100847.44
2017-12-06T18:14:52.235Z,100842.80
2017-12-06T18:17:18.433Z,100844.70
2017-12-06T18:19:44.688Z,100846.36
2017-12-06T18:22:11.307Z,100856.99
2017-12-06T18:24:37.553Z,100847.27
2017-12-06T18:27:03.756Z,100856.05
2017-12-06T18:29:30.162Z,100855.16
2017-12-06T18:31:56.349Z,100852.25
2017-12-06T18:34:22.545Z,100852.66
2017-12-06T18:36:48.786Z,100845.36
2017-12-06T18:39:15.130Z,100847.86
2017-12-06T18:41:41.562Z,100852.39
2017-12-06T18:44:07.812Z,100850.73
2017-12-06T18:46:33.998Z,100856.08
2017-12-06T18:49:00.201Z,100854.16
2017-12-06T18:51:26.498Z,100855.73
2017-12-06T18:53:52.677Z,100859.14
2017-12-06T18:56:18.851Z,100854.33
2017-12-06T18:58:45.040Z,100844.88
2017-12-06T19:01:11.219Z,100853.30
2017-12-06T19:03:37.396Z,100863.75
2017-12-06T19:06:03.832Z,100859.98
2017-12-06T19:08:29.996Z,100859.66
2017-12-06T19:10:56.182Z,100851.48
2017-12-06T19:13:22.397Z,100848.98
2017-12-06T19:15:48.555Z,100848.88
2017-12-06T19:18:14.797Z,100847.97
2017-12-06T19:20:41.411Z,100842.66
2017-12-06T19:23:07.591Z,100845.30
2017-12-06T19:25:33.869Z,100843.47
2017-12-06T19:28:00.076Z,100840.05
2017-12-06T19:30:26.545Z,100839.31
2017-12-06T19:32:52.718Z,100835.70
2017-12-06T19:35:18.924Z,100834.70
2017-12-06T19:37:45.085Z,100839.44
2017-12-06T19:40:11.265Z,100835.35
2017-12-06T19:42:37.486Z,100842.44
2017-12-06T19:45:03.719Z,100842.17
2017-12-06T19:47:29.937Z,100839.68
2017-12-06T19:49:56.154Z,100840.77
2017-12-06T19:52:22.342Z,100833.86
2017-12-06T19:54:48.543Z,100837.06
2017-12-06T19:57:14.736Z,100840.40
2017-12-06T19:59:40.922Z,100836.89
2017-12-06T20:02:07.099Z,100838.57
2017-12-06T20:04:33.532Z,100833.92
2017-12-06T20:06:59.721Z,100835.26
2017-12-06T20:09:25.913Z,100836.17
2017-12-06T20:11:52.225Z,100827.67
2017-12-06T20:14:18.411Z,100821.58
2017-12-06T20:16:44.687Z,100826.90
2017-12-06T20:19:11.344Z,100828.23
2017-12-06T20:21:37.538Z,100828.67
2017-12-06T20:24:03.715Z,100828.77
2017-12-06T20:26:30.008Z,100834.77
2017-12-06T20:28:56.193Z,100835.34
2017-12-06T20:31:22.455Z,100842.16
2017-12-06T20:33:48.896Z,100836.50
2017-12-06T20:36:15.095Z,100845.91
2017-12-06T20:38:41.297Z,100849.41
2017-12-06T20:41:07.509Z,100844.51
2017-12-06T20:43:33.888Z,100856.59
2017-12-06T20:46:00.452Z,100845.83
2017-12-06T20:48:26.674Z,100844.35
2017-12-06T20:50:52.907Z,100844.82
2017-12-06T20:53:19.120Z,100846.48
2017-12-06T20:55:45.641Z,100825.95
2017-12-06T20:58:11.988Z,100847.34
2017-12-06T21:00:38.426Z,100844.66
2017-12-06T21:03:04.864Z,100847.08
2017-12-06T21:05:31.045Z,100845.67
2017-12-06T21:07:57.306Z,100838.67
2017-12-06T21:10:23.612Z,100828.83
2017-12-06T21:12:50.193Z,100829.16
2017-12-06T21:15:16.549Z,100826.48
2017-12-06T21:17:42.847Z,100827.06
2017-12-06T21:20:09.085Z,100827.12
2017-12-06T21:22:35.285Z,100833.77
2017-12-06T21:25:01.544Z,100835.07
2017-12-06T21:27:27.735Z,100837.61
2017-12-06T21:29:54.205Z,100835.67
2017-12-06T21:32:20.435Z,100839.39
2017-12-06T21:34:46.623Z,100839.19
2017-12-06T21:37:12.802Z,100845.23
2017-12-06T21:39:39.008Z,100837.42
2017-12-06T21:42:05.349Z,100833.59
2017-12-06T21:44:31.578Z,100836.80
2017-12-06T21:46:58.185Z,100831.78
2017-12-06T21:49:24.438Z,100834.21
2017-12-06T21:51:50.672Z,100825.12
2017-12-06T21:54:16.933Z,100820.80
2017-12-06T21:56:43.259Z,100817.47
2017-12-06T21:59:09.563Z,100815.23
2017-12-06T22:01:35.793Z,100813.64
2017-12-06T22:04:01.988Z,100817.31
2017-12-06T22:06:28.233Z,100818.52
2017-12-06T22:08:54.667Z,100816.06
2017-12-06T22:11:20.908Z,100825.62
2017-12-06T22:13:47.128Z,100825.95
2017-12-06T22:16:13.349Z,100824.50
2017-12-06T22:18:39.547Z,100826.48
2017-12-06T22:21:05.811Z,100816.44
2017-12-06T22:23:32.258Z,100808.72
2017-12-06T22:25:58.481Z,100809.67
2017-12-06T22:28:24.677Z,100800.70
2017-12-06T22:30:51.129Z,100798.12
2017-12-06T22:33:17.363Z,100802.52
2017-12-06T22:35:43.553Z,100797.15
2017-12-06T22:38:09.782Z,100809.93
2017-12-06T22:40:36.057Z,100805.48
2017-12-06T22:43:02.453Z,100800.21
2017-12-06T22:45:28.673Z,100798.57
2017-12-06T22:47:54.957Z,100798.03
2017-12-06T22:50:21.160Z,100796.20
2017-12-06T22:52:47.384Z,100793.98
2017-12-06T22:55:13.624Z,100797.94
2017-12-06T22:57:39.805Z,100799.61
2017-12-06T23:00:06.244Z,100799.73
2017-12-06T23:02:32.475Z,100790.83
2017-12-06T23:04:58.745Z,100799.52
2017-12-06T23:07:25.392Z,100795.12
2017-12-06T23:09:52.011Z,100767.95
2017-12-06T23:12:18.264Z,100795.49
2017-12-06T23:14:44.744Z,100795.47
2017-12-06T23:17:11.117Z,100800.56
2017-12-06T23:19:37.355Z,100791.91
2017-12-06T23:22:03.997Z,100792.35
2017-12-06T23:24:30.260Z,100793.91
2017-12-06T23:26:56.641Z,100793.05
2017-12-06T23:29:23.045Z,100800.55
2017-12-06T23:31:49.387Z,100803.83
2017-12-06T23:34:15.742Z,100808.22
2017-12-06T23:36:41.960Z,100808.22
2017-12-06T23:39:08.134Z,100799.80
2017-12-06T23:41:34.317Z,100793.99
2017-12-06T23:44:00.828Z,100790.67
2017-12-06T23:46:27.103Z,100794.04
2017-12-06T23:48:53.604Z,100771.91
2017-12-06T23:51:19.819Z,100776.89
2017-12-06T23:53:46.151Z,100780.01
2017-12-06T23:56:12.326Z,100780.58
2017-12-06T23:58:38.642Z,100781.27
